Terminal Aerodrome Forecast
Issued by NWS Amarillo, TX

Home | Current Version | Previous Version | Text Only | Print | Product List | Glossary On
Versions: 1 2 3 4 5 6 7 8 9 10 11 12
000
FTUS44 KAMA 220500
TAFDHT
TAF
KDHT 220537Z 2206/2306 18008KT P6SM BKN200
     FM221600 22014KT P6SM SCT200
     FM230000 25008KT P6SM SKC=

USA.gov is the U.S. government's official web portal to all federal, state and local government web resources and services.